首页
METAR-TAF:

METAR-TAF

机场 :

麦卡伦国际机场

拉斯维加斯, 内华达州, 美国

纬度: 36-04-44N, 经度: 115-09-19W, 海拔: 663米

当前天气观测

该预报发布于33分钟前的04:56 UTC
风速3节,风向西
温度 13°C
湿度 72%
气压 1016 hPa
能見度: 16.1公里
少量云层高于4500英尺
散云层高于12000英尺
阴天层高于20000英尺

METAR: KLAS 080456Z 27003KT 10SM FEW045 SCT120 OVC200 13/08 A3000 RMK AO2 SLP154 T01280083

时间: 21:29 (05:29 UTC)

预报

该预报发布于2小时和33分钟前的02:56 UTC
预报有效从08日的 03点(UTC)到 09日的 06点(UTC)
风速5节,风向多变
能見度: 10公里
少量云层高于5000英尺
散云层高于12000英尺
阴天层高于20000英尺
从 08日的 0600点(UTC)
风速8节,风向
能見度: 10公里
散云层高于6000英尺
多云层高于15000英尺
从 08日的 1200点(UTC)
风速9节,风向南转西南
能見度: 10公里
散云层高于5000英尺
阴天层高于20000英尺
从 08日的 2000点(UTC)
风速10节,风向南转西南,有时为19节阵风
能見度: 10公里
散云层高于4000英尺
多云层高于8000英尺
附近有阵雨
从 08日的 2300点(UTC)
风速7节,风向西转西北
能見度: 10公里
散云层高于4000英尺
多云层高于5000英尺
小阵雨

TAF: KLAS 080256Z 0803/0906 VRB05KT P6SM FEW050 SCT120 OVC200 FM080600 18008KT P6SM SCT060 BKN150 FM081200 21009KT P6SM SCT050 OVC200 FM082000 21010G19KT P6SM VCSH SCT040 BKN080 FM082300 30007KT P6SM -SHRA SCT040 BKN050

超过4000个机场的气象观测和天气预报(METAR&TAF报告)。

可查询的气象台以黄色和红色小点在地图上表示。

将鼠标移到小点上方,可查看气象台名称。

然后点击查看天气观测和预报。

如需切换地图:点击带黑十字的绿色按钮放大地图;点击带横线的绿色按钮缩小地图;或者点击绿色箭头查看邻近地区的地图。


METAR-TAF: